Time;durP1;ratioP1;P1;durP2;ratioP2;P2;SDS_P1;SDS_P2;PMS_P1;PMS_P2;Temp;Humidity;BMP_temperature;BMP_pressure;BME280_temperature;BME280_humidity;BME280_pressure;Samples;Min_cycle;Max_cycle;Signal;HPM_P1;HPM_P2
2021/03/29 00:00:29;;;;;;;9.80;3.00;;;11.30;99.90;;;;;;4999928;28;20413;-82
2021/03/29 00:02:55;;;;;;;8.07;3.00;;;11.40;99.90;;;;;;5001921;28;20391;-81
2021/03/29 00:05:24;;;;;;;7.63;2.47;;;11.40;99.90;;;;;;5000112;28;20398;-80
2021/03/29 00:08:00;;;;;;;10.07;3.17;;;11.40;99.90;;;;;;4994768;28;20389;-80
2021/03/29 00:10:27;;;;;;;9.40;3.60;;;11.30;99.90;;;;;;4991737;28;20391;-80
2021/03/29 00:12:53;;;;;;;7.07;3.00;;;11.30;99.90;;;;;;4992104;28;20469;-80
2021/03/29 00:15:24;;;;;;;8.87;3.17;;;11.30;99.90;;;;;;4991859;28;20868;-80
2021/03/29 00:17:50;;;;;;;7.38;2.97;;;11.20;99.90;;;;;;4991691;28;20381;-80
2021/03/29 00:20:21;;;;;;;7.53;3.33;;;11.20;99.90;;;;;;4991261;28;20921;-81
2021/03/29 00:22:48;;;;;;;8.48;3.17;;;11.30;99.90;;;;;;4990016;28;20738;-81
2021/03/29 00:25:19;;;;;;;7.72;2.88;;;11.30;99.90;;;;;;4991559;28;20392;-80
2021/03/29 00:27:46;;;;;;;9.27;3.33;;;11.30;99.90;;;;;;4989894;28;20890;-79
2021/03/29 00:30:19;;;;;;;8.83;3.40;;;11.30;99.90;;;;;;4990035;28;20389;-81
2021/03/29 00:32:46;;;;;;;7.78;3.00;;;11.30;99.90;;;;;;4990309;28;20400;-80
2021/03/29 00:35:17;;;;;;;6.95;3.08;;;11.20;99.90;;;;;;4989832;28;20870;-81
2021/03/29 00:37:47;;;;;;;7.65;3.17;;;11.20;99.90;;;;;;4991337;28;20389;-80
2021/03/29 00:40:13;;;;;;;8.10;2.80;;;11.20;99.90;;;;;;4991350;28;20524;-81
2021/03/29 00:42:39;;;;;;;10.47;3.27;;;11.10;99.90;;;;;;4991180;28;20435;-80
2021/03/29 00:45:09;;;;;;;7.88;3.00;;;11.20;99.90;;;;;;4989861;28;20388;-80
2021/03/29 00:47:35;;;;;;;7.43;3.00;;;11.20;99.90;;;;;;4990640;28;20392;-81
2021/03/29 00:50:01;;;;;;;8.90;3.15;;;11.20;99.90;;;;;;4991093;28;20436;-81
2021/03/29 00:52:28;;;;;;;7.00;2.90;;;11.20;99.90;;;;;;4989201;28;21196;-81
2021/03/29 00:54:55;;;;;;;7.33;3.30;;;11.20;99.90;;;;;;4989860;28;20836;-80
2021/03/29 00:57:21;;;;;;;9.15;3.08;;;11.20;99.90;;;;;;4990516;28;20717;-80
2021/03/29 00:59:47;;;;;;;7.18;2.92;;;11.20;99.90;;;;;;4990931;28;20408;-80
2021/03/29 01:02:13;;;;;;;9.15;3.17;;;11.20;99.90;;;;;;4990752;28;20393;-81
2021/03/29 01:04:38;;;;;;;6.70;2.83;;;11.30;99.90;;;;;;4991013;28;20414;-81
2021/03/29 01:07:05;;;;;;;5.90;2.77;;;11.30;99.90;;;;;;4990130;28;20888;-81
2021/03/29 01:09:32;;;;;;;7.93;3.10;;;11.40;99.90;;;;;;4990910;28;20403;-81
2021/03/29 01:12:02;;;;;;;8.32;3.05;;;11.30;99.90;;;;;;4989642;28;20913;-80
2021/03/29 01:14:39;;;;;;;8.38;3.60;;;11.20;99.90;;;;;;4990621;28;20373;-81
2021/03/29 01:17:07;;;;;;;8.57;3.33;;;11.20;99.90;;;;;;4990422;28;20385;-81
2021/03/29 01:19:45;;;;;;;9.40;3.22;;;11.20;99.90;;;;;;4990582;28;20444;-82
2021/03/29 01:22:11;;;;;;;8.88;3.15;;;11.10;99.90;;;;;;4989245;28;20388;-81
2021/03/29 01:24:40;;;;;;;9.35;3.33;;;11.10;99.90;;;;;;4990364;28;20377;-81
2021/03/29 01:27:06;;;;;;;10.13;3.22;;;11.20;99.90;;;;;;4990217;28;20427;-80
2021/03/29 01:29:32;;;;;;;8.60;3.20;;;11.20;99.90;;;;;;4990272;28;20385;-81
2021/03/29 01:32:03;;;;;;;10.20;3.50;;;11.20;99.90;;;;;;4990075;28;20385;-80
2021/03/29 01:34:31;;;;;;;10.70;3.55;;;11.20;99.90;;;;;;4988058;28;20385;-80
2021/03/29 01:36:59;;;;;;;10.57;3.33;;;11.20;99.90;;;;;;4991798;28;20387;-80
2021/03/29 01:39:26;;;;;;;8.85;2.92;;;11.10;99.90;;;;;;4991292;28;20455;-81
2021/03/29 01:41:52;;;;;;;7.33;3.50;;;11.00;99.90;;;;;;4989960;28;20425;-80
2021/03/29 01:44:19;;;;;;;11.48;3.58;;;11.10;99.90;;;;;;4990408;28;20894;-80
2021/03/29 01:46:45;;;;;;;8.93;3.60;;;11.10;99.90;;;;;;4990023;28;20373;-81
2021/03/29 01:49:11;;;;;;;8.18;3.28;;;11.10;99.90;;;;;;4989643;28;20407;-82
2021/03/29 01:51:38;;;;;;;9.13;3.57;;;11.20;99.90;;;;;;4990032;28;20384;-82
2021/03/29 01:54:04;;;;;;;7.72;2.95;;;11.10;99.90;;;;;;4988624;28;20388;-81
2021/03/29 01:56:30;;;;;;;9.60;3.17;;;11.20;99.90;;;;;;4989577;28;20376;-80
2021/03/29 01:58:55;;;;;;;6.65;3.13;;;11.20;99.90;;;;;;4989714;28;20400;-80
2021/03/29 02:01:21;;;;;;;8.17;3.23;;;11.20;99.90;;;;;;4990005;28;20385;-81
2021/03/29 02:03:48;;;;;;;7.90;3.20;;;11.20;99.90;;;;;;4989816;28;20380;-80
2021/03/29 02:06:14;;;;;;;6.40;2.80;;;11.10;99.90;;;;;;4988594;28;20393;-80
2021/03/29 02:08:42;;;;;;;10.38;3.50;;;11.10;99.90;;;;;;4989500;28;20889;-80
2021/03/29 02:11:08;;;;;;;9.43;3.50;;;11.10;99.90;;;;;;4989804;28;20565;-82
2021/03/29 02:13:37;;;;;;;9.30;3.20;;;11.10;99.90;;;;;;4988380;28;20388;-80
2021/03/29 02:16:06;;;;;;;8.10;3.40;;;11.10;99.90;;;;;;4989511;28;20882;-80
2021/03/29 02:18:39;;;;;;;7.22;3.20;;;11.20;99.90;;;;;;4987880;28;20498;-80
2021/03/29 02:21:12;;;;;;;7.60;3.25;;;11.20;99.90;;;;;;4988171;28;20767;-80
2021/03/29 02:23:41;;;;;;;6.22;3.10;;;11.20;99.90;;;;;;4987863;28;20735;-80
2021/03/29 02:26:08;;;;;;;7.88;3.75;;;11.20;99.90;;;;;;4988264;28;20398;-81
2021/03/29 02:28:35;;;;;;;10.45;3.50;;;11.20;99.90;;;;;;4989366;28;20394;-80
2021/03/29 02:31:01;;;;;;;10.25;3.58;;;11.00;99.90;;;;;;4989378;28;20377;-81
2021/03/29 02:33:27;;;;;;;7.63;3.42;;;11.00;99.90;;;;;;4989419;28;20716;-80
2021/03/29 02:35:54;;;;;;;7.63;3.35;;;10.90;99.90;;;;;;4988053;28;20385;-81
2021/03/29 02:38:21;;;;;;;10.05;3.78;;;10.90;99.90;;;;;;4987762;28;20886;-81
2021/03/29 02:40:52;;;;;;;10.63;3.60;;;10.90;99.90;;;;;;4989072;28;20451;-80
2021/03/29 02:43:20;;;;;;;9.00;3.22;;;10.90;99.90;;;;;;4989392;28;20398;-80
2021/03/29 02:45:51;;;;;;;10.07;3.45;;;10.90;99.90;;;;;;4989374;28;20428;-80
2021/03/29 02:48:19;;;;;;;9.35;3.30;;;10.80;99.90;;;;;;4992703;28;20461;-80
2021/03/29 02:50:47;;;;;;;9.77;3.60;;;10.80;99.90;;;;;;4993394;28;20400;-79
2021/03/29 02:53:21;;;;;;;8.52;3.70;;;10.70;99.90;;;;;;4993251;28;20471;-80
2021/03/29 02:55:48;;;;;;;8.30;3.60;;;10.80;99.90;;;;;;4993450;28;20380;-80
2021/03/29 02:58:17;;;;;;;10.50;3.33;;;10.80;99.90;;;;;;4992752;28;20827;-80
2021/03/29 03:00:43;;;;;;;11.38;3.78;;;10.90;99.90;;;;;;4991906;28;20388;-80
2021/03/29 03:03:09;;;;;;;7.77;3.57;;;10.80;99.90;;;;;;4992612;28;20393;-80
2021/03/29 03:05:38;;;;;;;8.80;3.30;;;10.80;99.90;;;;;;4991953;28;20389;-81
2021/03/29 03:08:05;;;;;;;8.70;3.50;;;10.80;99.90;;;;;;4992748;28;21103;-81
2021/03/29 03:10:34;;;;;;;11.27;3.60;;;10.80;99.90;;;;;;4993274;28;20871;-80
2021/03/29 03:13:05;;;;;;;9.15;3.90;;;10.70;99.90;;;;;;4991859;28;20407;-83
2021/03/29 03:15:31;;;;;;;9.82;3.55;;;10.70;99.90;;;;;;4993602;28;20431;-81
2021/03/29 03:18:03;;;;;;;8.77;3.50;;;10.70;99.90;;;;;;4992436;28;20377;-80
2021/03/29 03:20:31;;;;;;;12.77;4.10;;;10.70;99.90;;;;;;4991555;28;20408;-81
2021/03/29 03:23:04;;;;;;;9.10;3.60;;;10.60;99.90;;;;;;4993205;28;20387;-81
2021/03/29 03:25:33;;;;;;;6.70;3.20;;;10.60;99.90;;;;;;4993013;28;20716;-81
2021/03/29 03:28:01;;;;;;;9.48;3.65;;;10.60;99.90;;;;;;4992065;28;20389;-81
2021/03/29 03:30:32;;;;;;;7.30;3.33;;;10.70;99.90;;;;;;4991238;28;20443;-81
2021/03/29 03:32:59;;;;;;;7.93;3.50;;;10.60;99.90;;;;;;4992706;28;20373;-80
2021/03/29 03:35:26;;;;;;;10.85;3.60;;;10.60;99.90;;;;;;4992429;28;21172;-81
2021/03/29 03:38:01;;;;;;;9.32;3.85;;;10.50;99.90;;;;;;4992531;28;21200;-81
2021/03/29 03:40:28;;;;;;;9.65;4.20;;;10.40;99.90;;;;;;4991028;28;20471;-80
2021/03/29 03:43:00;;;;;;;9.95;3.97;;;10.40;99.90;;;;;;4992485;28;20741;-81
2021/03/29 03:45:29;;;;;;;8.93;3.88;;;10.20;99.90;;;;;;4992312;28;20393;-81
2021/03/29 03:47:57;;;;;;;10.05;3.90;;;10.20;99.90;;;;;;4991970;28;20396;-81
2021/03/29 03:50:23;;;;;;;10.63;4.50;;;10.10;99.90;;;;;;4992373;28;20388;-81
2021/03/29 03:52:50;;;;;;;9.43;3.77;;;10.10;99.90;;;;;;4991007;28;20480;-81
2021/03/29 03:55:18;;;;;;;10.20;3.95;;;10.00;99.90;;;;;;4991786;28;20385;-80
2021/03/29 03:57:45;;;;;;;11.20;4.45;;;10.00;99.90;;;;;;4991346;28;20381;-80
2021/03/29 04:00:16;;;;;;;10.68;4.43;;;9.90;99.90;;;;;;4991811;28;20814;-81
2021/03/29 04:02:43;;;;;;;8.95;4.00;;;9.90;99.90;;;;;;4992318;28;20747;-81
2021/03/29 04:05:10;;;;;;;12.05;4.28;;;10.00;99.90;;;;;;4990501;28;20797;-80
2021/03/29 04:07:36;;;;;;;9.80;4.13;;;10.00;99.90;;;;;;4991732;28;20381;-80
2021/03/29 04:10:17;;;;;;;9.07;3.85;;;10.10;99.90;;;;;;4991737;28;20447;-81
2021/03/29 04:12:44;;;;;;;10.65;4.30;;;10.10;99.90;;;;;;4990534;28;20738;-80
2021/03/29 04:15:10;;;;;;;8.93;3.92;;;10.20;99.90;;;;;;4991859;28;20383;-81
2021/03/29 04:17:36;;;;;;;8.77;4.13;;;10.20;99.90;;;;;;4991518;28;20389;-80
2021/03/29 04:20:03;;;;;;;11.93;4.30;;;10.20;99.90;;;;;;4991654;28;20409;-80
2021/03/29 04:22:29;;;;;;;9.90;4.68;;;10.10;99.90;;;;;;4991526;28;20732;-80
2021/03/29 04:24:55;;;;;;;11.50;4.47;;;10.10;99.90;;;;;;4991598;28;20388;-80
2021/03/29 04:27:21;;;;;;;11.15;4.28;;;10.10;99.90;;;;;;4991344;28;20587;-80
2021/03/29 04:29:46;;;;;;;12.27;4.45;;;10.10;99.90;;;;;;4991417;28;20504;-80
2021/03/29 04:32:12;;;;;;;13.10;4.70;;;10.00;99.90;;;;;;4991500;28;20384;-80
2021/03/29 04:34:37;;;;;;;9.70;4.30;;;10.00;99.90;;;;;;4991879;28;20885;-81
2021/03/29 04:37:03;;;;;;;10.52;4.72;;;10.10;99.90;;;;;;4990918;28;20385;-81
2021/03/29 04:39:29;;;;;;;9.70;4.27;;;10.00;99.90;;;;;;4991198;28;20401;-81
2021/03/29 04:41:54;;;;;;;8.63;4.23;;;10.10;99.90;;;;;;4991192;28;20389;-81
2021/03/29 04:44:20;;;;;;;10.60;4.28;;;10.00;99.90;;;;;;4991254;28;20782;-82
2021/03/29 04:46:46;;;;;;;12.70;4.93;;;10.00;99.90;;;;;;4993009;28;20385;-80
2021/03/29 04:49:11;;;;;;;11.85;4.50;;;9.90;99.90;;;;;;4991203;28;20399;-81
2021/03/29 04:51:37;;;;;;;9.75;4.95;;;9.90;99.90;;;;;;4992320;28;20851;-80
2021/03/29 04:54:03;;;;;;;12.50;4.33;;;9.90;99.90;;;;;;4989989;28;20421;-81
2021/03/29 04:56:28;;;;;;;10.10;4.30;;;10.00;99.90;;;;;;4991040;28;20381;-81
2021/03/29 04:58:54;;;;;;;7.20;3.63;;;10.00;99.90;;;;;;4989377;28;20459;-80
2021/03/29 05:01:19;;;;;;;12.40;4.55;;;10.00;99.90;;;;;;4989678;28;20496;-80
2021/03/29 05:03:45;;;;;;;9.47;4.37;;;10.10;99.90;;;;;;4989774;28;20428;-80
2021/03/29 05:06:10;;;;;;;9.27;4.32;;;10.10;99.90;;;;;;4990812;28;20391;-82
2021/03/29 05:08:36;;;;;;;13.23;4.60;;;10.20;99.90;;;;;;4990393;28;20860;-81
2021/03/29 05:11:02;;;;;;;9.93;4.07;;;10.20;99.90;;;;;;4990604;28;20467;-82
2021/03/29 05:13:27;;;;;;;13.32;4.55;;;10.20;99.90;;;;;;4990839;28;20385;-81
2021/03/29 05:15:53;;;;;;;10.18;4.40;;;10.20;99.90;;;;;;4990774;28;20369;-83
2021/03/29 05:18:19;;;;;;;11.57;4.30;;;10.30;99.90;;;;;;4990119;28;20376;-82
2021/03/29 05:20:44;;;;;;;8.73;3.88;;;10.30;99.90;;;;;;4989203;28;20400;-82
2021/03/29 05:23:10;;;;;;;8.30;3.80;;;10.40;99.90;;;;;;4989239;28;20715;-82
2021/03/29 05:25:35;;;;;;;8.33;4.47;;;10.40;99.90;;;;;;4990263;28;20508;-82
2021/03/29 05:28:01;;;;;;;11.43;4.45;;;10.50;99.90;;;;;;4990149;28;20431;-82
2021/03/29 05:30:27;;;;;;;9.80;4.00;;;10.60;99.90;;;;;;4990315;28;20392;-82
2021/03/29 05:32:52;;;;;;;8.20;4.00;;;10.60;99.90;;;;;;4990643;28;20416;-82
2021/03/29 05:35:18;;;;;;;9.65;4.13;;;10.70;99.90;;;;;;4989102;28;20957;-82
2021/03/29 05:37:43;;;;;;;10.63;3.92;;;10.70;99.90;;;;;;4988761;28;20377;-82
2021/03/29 05:40:10;;;;;;;10.43;4.30;;;10.80;99.90;;;;;;4989959;28;20483;-82
2021/03/29 05:42:36;;;;;;;9.73;3.80;;;10.80;99.90;;;;;;4990220;28;20391;-82
2021/03/29 05:45:08;;;;;;;8.50;3.97;;;10.80;99.90;;;;;;4990277;28;20393;-82
2021/03/29 05:47:35;;;;;;;12.30;4.50;;;10.90;99.90;;;;;;4989590;28;20407;-82
2021/03/29 05:50:04;;;;;;;11.55;4.47;;;10.90;99.90;;;;;;4990388;28;20389;-82
2021/03/29 05:52:30;;;;;;;10.70;4.10;;;10.90;99.90;;;;;;4988833;28;20384;-82
2021/03/29 05:54:59;;;;;;;10.77;4.50;;;11.00;99.90;;;;;;4988782;28;20388;-82
2021/03/29 05:57:25;;;;;;;10.77;4.00;;;11.10;99.90;;;;;;4988574;28;20958;-82
2021/03/29 05:59:51;;;;;;;9.27;4.18;;;11.10;99.90;;;;;;4989870;28;20431;-82
2021/03/29 06:02:30;;;;;;;9.93;4.17;;;11.20;99.90;;;;;;4989873;28;20381;-82
2021/03/29 06:04:56;;;;;;;10.70;4.68;;;11.30;99.90;;;;;;4989841;28;20400;-81
2021/03/29 06:07:27;;;;;;;12.20;4.80;;;11.40;99.90;;;;;;4988369;28;20385;-81
2021/03/29 06:09:55;;;;;;;10.15;4.38;;;11.50;99.90;;;;;;4988657;28;20446;-81
2021/03/29 06:12:22;;;;;;;11.02;4.60;;;11.60;99.90;;;;;;4989899;28;20404;-82
2021/03/29 06:15:01;;;;;;;11.90;5.70;;;11.70;99.90;;;;;;4989885;28;20385;-81
2021/03/29 06:17:27;;;;;;;10.63;4.55;;;11.70;99.90;;;;;;4989521;28;20380;-82
2021/03/29 06:20:00;;;;;;;13.68;4.80;;;11.80;99.90;;;;;;4988190;28;20891;-82
2021/03/29 06:22:33;;;;;;;13.85;4.95;;;11.80;99.90;;;;;;4989278;28;20902;-81
2021/03/29 06:25:08;;;;;;;8.98;4.47;;;11.90;99.90;;;;;;4989672;28;20870;-83
2021/03/29 06:27:43;;;;;;;12.20;4.53;;;11.90;99.90;;;;;;4989216;28;20395;-81
2021/03/29 06:30:34;;;;;;;11.38;4.88;;;12.00;99.90;;;;;;4989366;28;20443;-81
2021/03/29 06:33:14;;;;;;;11.50;5.20;;;12.10;99.90;;;;;;4988513;28;20413;-81
2021/03/29 06:35:43;;;;;;;11.32;4.95;;;12.10;99.90;;;;;;4989402;28;20396;-82
2021/03/29 06:38:14;;;;;;;11.75;4.95;;;12.10;99.90;;;;;;4989153;28;20456;-83
2021/03/29 06:40:47;;;;;;;11.07;4.75;;;12.20;99.90;;;;;;4989393;28;20503;-81
2021/03/29 06:43:20;;;;;;;12.35;5.05;;;12.20;99.90;;;;;;4989342;28;20373;-82
2021/03/29 06:46:05;;;;;;;11.10;4.65;;;12.10;99.90;;;;;;4989517;28;20381;-82
2021/03/29 06:48:36;;;;;;;10.70;4.55;;;12.10;99.90;;;;;;4987584;28;20400;-82
2021/03/29 06:51:09;;;;;;;11.20;5.03;;;12.00;99.90;;;;;;4989491;28;20385;-82
2021/03/29 06:53:52;;;;;;;11.90;4.72;;;12.00;99.90;;;;;;4989438;28;20412;-82
2021/03/29 06:56:34;;;;;;;13.55;4.82;;;12.00;99.90;;;;;;4989270;28;20412;-83
2021/03/29 06:59:02;;;;;;;11.90;5.00;;;12.00;99.90;;;;;;4988989;28;20405;-82
2021/03/29 07:01:29;;;;;;;11.75;4.60;;;12.20;99.90;;;;;;4989400;28;20376;-81
2021/03/29 07:03:56;;;;;;;10.20;5.00;;;12.30;99.90;;;;;;4989378;28;20995;-82
2021/03/29 07:06:26;;;;;;;12.70;4.83;;;12.50;99.90;;;;;;4989182;28;20388;-81
2021/03/29 07:09:01;;;;;;;10.07;4.35;;;12.50;99.90;;;;;;4988578;28;20381;-81
2021/03/29 07:11:27;;;;;;;9.95;4.22;;;12.50;99.90;;;;;;4987953;28;20401;-82
2021/03/29 07:13:54;;;;;;;10.20;4.30;;;12.60;99.90;;;;;;4989043;28;20435;-81
2021/03/29 07:16:21;;;;;;;11.90;4.47;;;12.80;99.90;;;;;;4989406;28;20933;-81
2021/03/29 07:18:48;;;;;;;9.95;4.07;;;12.90;99.90;;;;;;4989176;28;20507;-82
2021/03/29 07:21:16;;;;;;;11.55;4.38;;;13.00;99.90;;;;;;4989061;28;20373;-81
2021/03/29 07:23:43;;;;;;;9.60;4.00;;;13.00;99.90;;;;;;4987632;28;20471;-82
2021/03/29 07:26:27;;;;;;;12.02;4.22;;;13.00;99.90;;;;;;4987810;28;20389;-81
2021/03/29 07:28:54;;;;;;;10.40;4.00;;;13.10;99.90;;;;;;4988683;28;20389;-82
2021/03/29 07:31:39;;;;;;;16.20;4.57;;;13.20;99.90;;;;;;4989059;28;20464;-83
2021/03/29 07:34:04;;;;;;;9.05;4.10;;;13.40;99.90;;;;;;4992336;28;20389;-82
2021/03/29 07:36:50;;;;;;;11.60;4.32;;;13.50;99.90;;;;;;4992597;28;20385;-82
2021/03/29 07:39:22;;;;;;;10.50;4.30;;;13.70;99.90;;;;;;4992334;28;20408;-82
2021/03/29 07:42:08;;;;;;;10.80;4.18;;;14.00;99.90;;;;;;4992920;28;20383;-83
2021/03/29 07:44:51;;;;;;;9.93;4.57;;;14.10;99.90;;;;;;4999850;28;20877;-82
2021/03/29 07:47:49;;;;;;;11.70;4.30;;;14.30;99.90;;;;;;5009961;28;20391;-83
2021/03/29 07:50:25;;;;;;;11.95;4.30;;;14.40;99.90;;;;;;5008472;28;20438;-83
2021/03/29 07:52:51;;;;;;;12.82;4.80;;;14.40;99.90;;;;;;5011192;28;20466;-81
2021/03/29 07:55:24;;;;;;;11.88;4.60;;;14.40;99.90;;;;;;5011384;28;20462;-83
2021/03/29 07:57:50;;;;;;;13.60;5.30;;;14.50;99.90;;;;;;5006430;28;20392;-84
2021/03/29 08:00:28;;;;;;;9.17;4.20;;;14.60;99.90;;;;;;5001407;28;20409;-83
2021/03/29 08:03:18;;;;;;;9.88;4.32;;;14.60;99.90;;;;;;4992522;28;20467;-81
2021/03/29 08:05:45;;;;;;;10.57;4.38;;;14.60;99.90;;;;;;5025723;28;20481;-81
2021/03/29 08:08:26;;;;;;;8.98;3.80;;;14.70;99.90;;;;;;5009871;28;20399;-82
2021/03/29 08:11:11;;;;;;;11.50;3.85;;;14.70;99.90;;;;;;5007643;28;20422;-82
2021/03/29 08:13:50;;;;;;;11.95;4.10;;;14.80;99.90;;;;;;5009575;28;20417;-83
2021/03/29 08:16:20;;;;;;;11.60;4.20;;;14.90;99.90;;;;;;5008286;28;20391;-82
2021/03/29 08:19:18;;;;;;;11.10;3.92;;;14.80;99.90;;;;;;5007027;28;20422;-82
2021/03/29 08:22:09;;;;;;;10.88;4.03;;;14.80;99.90;;;;;;5006854;28;20424;-82
2021/03/29 08:24:42;;;;;;;11.10;3.75;;;14.60;99.90;;;;;;5005886;28;20453;-83
2021/03/29 08:30:15;;;;;;;10.60;3.90;;;14.80;99.90;;;;;;5120810;22;20798;-81
2021/03/29 08:32:41;;;;;;;12.55;3.90;;;14.80;99.90;;;;;;4991209;28;20391;-81
2021/03/29 08:35:09;;;;;;;9.60;3.92;;;14.80;99.90;;;;;;5008751;28;20877;-82
2021/03/29 08:37:47;;;;;;;9.47;3.90;;;14.70;99.90;;;;;;4998790;28;20746;-81
2021/03/29 08:40:17;;;;;;;10.32;3.85;;;14.60;99.90;;;;;;4996247;28;20837;-81
2021/03/29 08:42:45;;;;;;;12.38;4.10;;;14.70;99.90;;;;;;4997028;28;20395;-81
2021/03/29 08:45:13;;;;;;;9.40;3.78;;;14.80;99.90;;;;;;4994518;28;20383;-81
2021/03/29 08:47:42;;;;;;;11.63;4.30;;;14.80;99.90;;;;;;4996902;28;20874;-81
2021/03/29 08:50:13;;;;;;;10.52;4.05;;;15.10;99.90;;;;;;4996783;28;20387;-81
2021/03/29 08:52:56;;;;;;;12.95;3.85;;;15.20;99.90;;;;;;4997716;28;20812;-81
2021/03/29 08:55:24;;;;;;;12.32;4.00;;;15.30;99.90;;;;;;4997796;28;20395;-82
2021/03/29 08:57:51;;;;;;;11.20;3.78;;;15.50;99.90;;;;;;4999429;28;20385;-82
2021/03/29 09:00:19;;;;;;;9.48;4.15;;;15.70;99.90;;;;;;4999351;28;20522;-82
2021/03/29 09:02:46;;;;;;;11.75;3.90;;;15.60;99.90;;;;;;4996895;28;20400;-82
2021/03/29 09:05:14;;;;;;;10.40;4.03;;;15.50;99.90;;;;;;4996723;28;20431;-82
2021/03/29 09:07:54;;;;;;;13.18;4.00;;;15.40;99.90;;;;;;5000081;28;20383;-83
2021/03/29 09:10:32;;;;;;;12.02;3.70;;;15.50;99.90;;;;;;4996069;28;20479;-82
2021/03/29 09:12:59;;;;;;;11.82;3.85;;;15.60;99.90;;;;;;4991197;28;20455;-84
2021/03/29 09:15:27;;;;;;;12.70;4.20;;;15.80;99.90;;;;;;4995976;28;20377;-81
2021/03/29 09:18:13;;;;;;;9.98;3.33;;;15.80;99.90;;;;;;4994777;28;20387;-82
2021/03/29 09:20:51;;;;;;;11.50;3.90;;;16.00;99.90;;;;;;4990452;28;20415;-81
2021/03/29 09:23:28;;;;;;;9.38;4.10;;;16.20;99.90;;;;;;4992513;28;20488;-83
2021/03/29 09:25:54;;;;;;;11.98;4.50;;;16.30;99.90;;;;;;4991218;28;20882;-81
2021/03/29 09:30:57;;;;;;;10.55;3.50;;;16.40;99.70;;;;;;4993467;28;20569;-80
2021/03/29 09:33:23;;;;;;;10.80;3.55;;;16.60;99.20;;;;;;5009617;28;20498;-81
2021/03/29 09:35:52;;;;;;;10.48;2.92;;;16.50;98.50;;;;;;5009361;28;20471;-80
2021/03/29 09:38:35;;;;;;;10.17;3.80;;;16.70;99.30;;;;;;4992291;28;20389;-81
2021/03/29 09:41:02;;;;;;;10.25;3.65;;;16.60;98.30;;;;;;4988400;28;20391;-81
2021/03/29 09:43:28;;;;;;;10.93;3.92;;;16.40;99.10;;;;;;4988711;28;20520;-81
2021/03/29 09:46:04;;;;;;;11.57;4.20;;;16.30;98.30;;;;;;4990074;28;20398;-81
2021/03/29 09:48:31;;;;;;;10.30;3.28;;;16.20;98.60;;;;;;4987235;28;20501;-81
2021/03/29 09:50:58;;;;;;;11.40;4.15;;;16.20;98.60;;;;;;4989575;28;20428;-79
2021/03/29 09:53:32;;;;;;;11.10;3.60;;;16.10;99.00;;;;;;4988159;28;20396;-81
2021/03/29 09:55:58;;;;;;;9.35;3.40;;;16.40;99.20;;;;;;5003018;28;20788;-80
2021/03/29 09:58:30;;;;;;;10.47;3.67;;;16.60;97.90;;;;;;5000251;28;20379;-83
2021/03/29 10:01:05;;;;;;;11.48;3.75;;;17.00;98.20;;;;;;4996681;28;20430;-81
2021/03/29 10:03:30;;;;;;;13.48;3.67;;;17.10;96.60;;;;;;4988088;28;20917;-81
2021/03/29 10:05:57;;;;;;;12.03;3.67;;;17.10;97.00;;;;;;4988552;28;20393;-80
2021/03/29 10:08:29;;;;;;;11.50;3.70;;;16.90;96.90;;;;;;4994634;28;20389;-80
2021/03/29 10:11:02;;;;;;;11.18;3.78;;;16.80;96.90;;;;;;4994643;28;20469;-82
2021/03/29 10:13:40;;;;;;;10.30;3.97;;;16.80;97.20;;;;;;4996664;28;20397;-84
2021/03/29 10:16:45;;;;;;;7.63;3.50;;;16.70;96.40;;;;;;4996435;28;20381;-81
2021/03/29 10:19:13;;;;;;;9.45;3.83;;;16.50;97.60;;;;;;4980443;28;20433;-82
2021/03/29 10:22:14;;;;;;;9.65;3.83;;;16.40;97.30;;;;;;4998698;28;20405;-81
2021/03/29 10:25:16;;;;;;;11.93;3.83;;;16.20;97.90;;;;;;4979649;28;20397;-83
2021/03/29 10:27:51;;;;;;;10.32;3.63;;;16.10;97.50;;;;;;4999171;28;20399;-82
2021/03/29 10:30:20;;;;;;;10.00;3.67;;;16.20;97.80;;;;;;4985672;28;20409;-81
2021/03/29 10:32:50;;;;;;;10.90;3.55;;;16.30;97.70;;;;;;4990491;28;20387;-82
2021/03/29 10:35:16;;;;;;;9.77;3.60;;;16.50;98.10;;;;;;4986838;28;20407;-82
2021/03/29 10:37:42;;;;;;;10.68;3.90;;;16.60;98.10;;;;;;5000244;28;20387;-81
2021/03/29 10:40:08;;;;;;;13.35;3.80;;;16.80;97.00;;;;;;4989973;28;20972;-81
2021/03/29 10:42:35;;;;;;;9.73;3.75;;;16.90;97.40;;;;;;4990683;28;20397;-81
2021/03/29 10:45:06;;;;;;;9.35;3.83;;;17.00;97.70;;;;;;4991765;28;20431;-82
2021/03/29 10:47:32;;;;;;;10.73;3.38;;;17.30;97.20;;;;;;4992013;28;20392;-84
2021/03/29 10:49:57;;;;;;;12.93;4.22;;;17.50;96.50;;;;;;4993071;28;20393;-82
2021/03/29 10:52:23;;;;;;;9.88;3.75;;;17.60;96.80;;;;;;4990102;28;20443;-83
2021/03/29 10:54:49;;;;;;;12.30;4.07;;;17.70;96.40;;;;;;4993260;28;20383;-83
2021/03/29 10:57:15;;;;;;;9.85;3.88;;;17.60;96.00;;;;;;4992770;28;20391;-81
2021/03/29 10:59:41;;;;;;;9.77;3.78;;;17.20;94.80;;;;;;4993309;28;20434;-81
2021/03/29 11:02:07;;;;;;;12.57;3.73;;;17.00;96.20;;;;;;4992870;28;20389;-82
2021/03/29 11:04:33;;;;;;;11.60;3.70;;;17.20;96.60;;;;;;4992420;28;20379;-81
2021/03/29 11:06:59;;;;;;;9.30;3.60;;;17.30;96.00;;;;;;4992376;28;20401;-81
2021/03/29 11:09:24;;;;;;;10.15;3.60;;;17.50;96.10;;;;;;4996402;28;20388;-82
2021/03/29 11:11:51;;;;;;;13.27;4.63;;;17.60;96.00;;;;;;4995954;28;20402;-83
2021/03/29 11:14:18;;;;;;;11.37;4.10;;;17.50;95.30;;;;;;4996821;28;20869;-82
2021/03/29 11:16:44;;;;;;;10.07;4.13;;;17.40;95.90;;;;;;4995143;28;20974;-82
2021/03/29 11:19:10;;;;;;;14.23;4.53;;;17.50;96.40;;;;;;4998529;28;20414;-83
2021/03/29 11:21:35;;;;;;;9.17;3.70;;;17.60;95.80;;;;;;4996280;28;20868;-81
2021/03/29 11:24:01;;;;;;;11.63;4.20;;;17.60;95.50;;;;;;5003033;28;20390;-82
2021/03/29 11:26:28;;;;;;;8.77;4.27;;;17.50;95.10;;;;;;5003634;28;20388;-83
2021/03/29 11:28:54;;;;;;;12.65;4.45;;;17.40;95.50;;;;;;4992445;28;21008;-83
2021/03/29 11:31:22;;;;;;;12.10;4.20;;;17.20;95.50;;;;;;5000623;28;20401;-81
2021/03/29 11:33:48;;;;;;;13.50;4.25;;;17.10;96.00;;;;;;5004812;28;20414;-81
2021/03/29 11:36:13;;;;;;;11.13;4.68;;;17.20;96.10;;;;;;4993563;28;20375;-81
2021/03/29 11:38:41;;;;;;;12.00;4.33;;;17.20;96.50;;;;;;5003683;28;20387;-83
2021/03/29 11:41:06;;;;;;;11.90;4.47;;;17.40;96.60;;;;;;4996943;28;20863;-81
2021/03/29 11:43:32;;;;;;;11.63;4.35;;;17.60;95.50;;;;;;4990865;28;20408;-81
2021/03/29 11:45:58;;;;;;;11.30;3.88;;;17.70;95.20;;;;;;5004539;28;20386;-83
2021/03/29 11:48:24;;;;;;;10.17;3.90;;;17.90;95.30;;;;;;4993751;28;20388;-82
2021/03/29 11:50:50;;;;;;;9.50;4.30;;;18.10;94.70;;;;;;4996850;28;20407;-81
2021/03/29 11:53:18;;;;;;;10.25;3.88;;;18.10;94.50;;;;;;4995599;28;20410;-81
2021/03/29 11:55:43;;;;;;;13.10;4.45;;;18.20;94.80;;;;;;4999499;28;20387;-82
2021/03/29 11:58:09;;;;;;;15.77;4.53;;;18.00;94.10;;;;;;4992738;28;20388;-82
2021/03/29 12:00:48;;;;;;;12.20;4.53;;;17.80;95.60;;;;;;4998440;28;21158;-82
2021/03/29 12:06:17;;;;;;;14.00;5.15;;;17.40;95.20;;;;;;4991188;28;20461;-82
2021/03/29 12:08:42;;;;;;;11.05;4.28;;;17.50;96.10;;;;;;4997872;28;20453;-82
2021/03/29 12:14:11;;;;;;;15.15;6.03;;;17.60;96.10;;;;;;4997369;28;20805;-84
2021/03/29 12:16:41;;;;;;;11.77;4.70;;;17.70;96.00;;;;;;5001234;28;20387;-81
2021/03/29 12:19:06;;;;;;;11.82;4.70;;;17.80;95.20;;;;;;5004053;28;20892;-83
2021/03/29 12:21:37;;;;;;;9.15;4.70;;;18.00;96.10;;;;;;4997449;28;20420;-81
2021/03/29 12:24:16;;;;;;;12.65;5.38;;;18.30;95.80;;;;;;5003720;28;20411;-83
2021/03/29 12:26:42;;;;;;;12.55;4.78;;;18.30;94.20;;;;;;4996605;28;20453;-81
2021/03/29 12:29:14;;;;;;;12.30;4.90;;;18.30;95.00;;;;;;4995121;28;20391;-82
2021/03/29 12:31:40;;;;;;;9.30;4.37;;;18.20;95.30;;;;;;4989656;28;20459;-80
2021/03/29 12:34:07;;;;;;;11.23;4.60;;;18.20;95.30;;;;;;5004210;28;20479;-81
2021/03/29 12:36:39;;;;;;;9.80;4.30;;;18.30;94.70;;;;;;4999487;28;20389;-83
2021/03/29 12:39:41;;;;;;;10.68;4.55;;;18.40;95.30;;;;;;4996070;28;20410;-80
2021/03/29 12:42:02;;;;;;;10.65;4.78;;;18.40;95.50;;;;;;4990380;28;20397;-82
2021/03/29 12:44:28;;;;;;;9.07;4.50;;;18.30;95.10;;;;;;4990828;28;20761;-81
2021/03/29 12:46:59;;;;;;;13.98;4.65;;;18.40;95.10;;;;;;4996328;28;20544;-80
2021/03/29 12:49:25;;;;;;;16.25;4.93;;;18.50;95.70;;;;;;5001540;28;20881;-82
2021/03/29 12:51:59;;;;;;;12.38;4.60;;;18.50;94.30;;;;;;4991451;28;20384;-81
2021/03/29 12:54:27;;;;;;;11.15;4.50;;;18.30;94.10;;;;;;4999953;28;20391;-82
2021/03/29 12:56:54;;;;;;;9.98;4.40;;;18.40;94.80;;;;;;4993227;28;20853;-82
2021/03/29 12:59:25;;;;;;;11.20;4.45;;;18.60;95.30;;;;;;4988330;28;20815;-82
2021/03/29 13:01:53;;;;;;;13.45;4.47;;;18.70;94.90;;;;;;4996636;28;20400;-81
2021/03/29 13:04:22;;;;;;;9.55;4.45;;;18.70;93.50;;;;;;4999361;28;20408;-81